sensor_id;sensor_type;location;lat;lon;timestamp;pressure;altitude;pressure_sealevel;temperature;humidity
63306;BME280;50735;52.060;1.248;2023-08-21T00:01:58;101999.83;;;17.43;52.83
63306;BME280;50735;52.060;1.248;2023-08-21T00:04:31;102000.27;;;17.18;52.90
63306;BME280;50735;52.060;1.248;2023-08-21T00:07:02;101999.22;;;17.34;52.88
63306;BME280;50735;52.060;1.248;2023-08-21T00:09:34;101997.54;;;17.32;52.91
63306;BME280;50735;52.060;1.248;2023-08-21T00:12:06;101996.33;;;17.10;53.07
63306;BME280;50735;52.060;1.248;2023-08-21T00:14:38;101995.06;;;17.47;53.03
63306;BME280;50735;52.060;1.248;2023-08-21T00:17:10;101997.48;;;17.44;52.95
63306;BME280;50735;52.060;1.248;2023-08-21T00:19:42;101993.99;;;17.41;52.97
63306;BME280;50735;52.060;1.248;2023-08-21T00:22:13;101993.75;;;17.00;52.91
63306;BME280;50735;52.060;1.248;2023-08-21T00:24:45;101996.24;;;16.96;52.88
63306;BME280;50735;52.060;1.248;2023-08-21T00:27:17;101996.54;;;17.14;52.83
63306;BME280;50735;52.060;1.248;2023-08-21T00:29:49;101999.39;;;17.25;52.94
63306;BME280;50735;52.060;1.248;2023-08-21T00:32:21;102000.84;;;17.17;53.00
63306;BME280;50735;52.060;1.248;2023-08-21T00:34:53;102000.23;;;16.95;53.05
63306;BME280;50735;52.060;1.248;2023-08-21T00:37:25;102003.03;;;17.08;53.17
63306;BME280;50735;52.060;1.248;2023-08-21T00:39:57;102001.40;;;17.01;53.25
63306;BME280;50735;52.060;1.248;2023-08-21T00:42:28;102003.46;;;16.93;53.39
63306;BME280;50735;52.060;1.248;2023-08-21T00:45:00;102003.93;;;16.84;53.58
63306;BME280;50735;52.060;1.248;2023-08-21T00:47:32;102005.94;;;16.61;53.66
63306;BME280;50735;52.060;1.248;2023-08-21T00:50:06;102006.51;;;16.51;53.92
63306;BME280;50735;52.060;1.248;2023-08-21T00:52:39;102004.78;;;16.85;54.01
63306;BME280;50735;52.060;1.248;2023-08-21T00:55:13;102003.65;;;16.62;54.06
63306;BME280;50735;52.060;1.248;2023-08-21T00:57:45;102000.93;;;16.52;54.32
63306;BME280;50735;52.060;1.248;2023-08-21T01:00:17;102000.96;;;16.48;54.49
63306;BME280;50735;52.060;1.248;2023-08-21T01:02:50;101998.98;;;16.47;54.65
63306;BME280;50735;52.060;1.248;2023-08-21T01:05:22;101997.89;;;16.45;54.45
63306;BME280;50735;52.060;1.248;2023-08-21T01:07:59;101999.71;;;16.63;54.46
63306;BME280;50735;52.060;1.248;2023-08-21T01:10:43;102000.96;;;16.42;54.49
63306;BME280;50735;52.060;1.248;2023-08-21T01:13:24;102003.28;;;16.56;54.52
63306;BME280;50735;52.060;1.248;2023-08-21T01:16:00;102002.51;;;16.35;54.73
63306;BME280;50735;52.060;1.248;2023-08-21T01:18:32;102001.19;;;16.32;54.75
63306;BME280;50735;52.060;1.248;2023-08-21T01:21:06;102003.91;;;16.31;54.67
63306;BME280;50735;52.060;1.248;2023-08-21T01:23:38;102001.25;;;16.30;54.72
63306;BME280;50735;52.060;1.248;2023-08-21T01:26:10;102002.60;;;16.27;54.78
63306;BME280;50735;52.060;1.248;2023-08-21T01:28:42;102004.66;;;16.43;54.76
63306;BME280;50735;52.060;1.248;2023-08-21T01:31:18;102006.93;;;16.24;54.75
63306;BME280;50735;52.060;1.248;2023-08-21T01:33:55;102004.50;;;16.40;54.80
63306;BME280;50735;52.060;1.248;2023-08-21T01:36:30;102005.23;;;16.14;54.88
63306;BME280;50735;52.060;1.248;2023-08-21T01:39:02;102005.27;;;16.05;55.08
63306;BME280;50735;52.060;1.248;2023-08-21T01:41:35;102004.41;;;15.99;55.15
63306;BME280;50735;52.060;1.248;2023-08-21T01:44:07;102005.28;;;16.11;55.31
63306;BME280;50735;52.060;1.248;2023-08-21T01:46:38;102009.89;;;16.23;55.44
63306;BME280;50735;52.060;1.248;2023-08-21T01:49:10;102009.96;;;16.15;55.58
63306;BME280;50735;52.060;1.248;2023-08-21T01:51:42;102006.45;;;15.69;55.80
63306;BME280;50735;52.060;1.248;2023-08-21T01:54:13;102005.34;;;15.87;55.75
63306;BME280;50735;52.060;1.248;2023-08-21T01:56:45;102005.40;;;15.90;55.65
63306;BME280;50735;52.060;1.248;2023-08-21T01:59:17;102005.59;;;15.82;56.10
63306;BME280;50735;52.060;1.248;2023-08-21T02:01:51;102007.61;;;15.75;56.04
63306;BME280;50735;52.060;1.248;2023-08-21T02:04:23;102008.48;;;16.00;56.01
63306;BME280;50735;52.060;1.248;2023-08-21T02:06:54;102008.38;;;15.77;55.88
63306;BME280;50735;52.060;1.248;2023-08-21T02:09:26;102009.53;;;15.76;55.97
63306;BME280;50735;52.060;1.248;2023-08-21T02:11:58;102010.85;;;15.99;55.97
63306;BME280;50735;52.060;1.248;2023-08-21T02:14:29;102010.36;;;15.75;55.99
63306;BME280;50735;52.060;1.248;2023-08-21T02:17:01;102012.45;;;15.91;56.33
63306;BME280;50735;52.060;1.248;2023-08-21T02:19:33;102011.76;;;15.84;56.27
63306;BME280;50735;52.060;1.248;2023-08-21T02:22:04;102013.05;;;15.82;56.32
63306;BME280;50735;52.060;1.248;2023-08-21T02:24:36;102013.98;;;15.50;56.62
63306;BME280;50735;52.060;1.248;2023-08-21T02:27:08;102013.11;;;15.67;56.88
63306;BME280;50735;52.060;1.248;2023-08-21T02:29:41;102016.33;;;15.66;56.77
63306;BME280;50735;52.060;1.248;2023-08-21T02:32:13;102015.90;;;15.64;56.78
63306;BME280;50735;52.060;1.248;2023-08-21T02:34:44;102017.31;;;15.35;56.90
63306;BME280;50735;52.060;1.248;2023-08-21T02:37:16;102017.19;;;15.57;56.87
63306;BME280;50735;52.060;1.248;2023-08-21T02:39:48;102023.32;;;15.55;56.96
63306;BME280;50735;52.060;1.248;2023-08-21T02:42:20;102024.64;;;15.43;57.34
63306;BME280;50735;52.060;1.248;2023-08-21T02:44:51;102023.57;;;15.45;57.31
63306;BME280;50735;52.060;1.248;2023-08-21T02:47:23;102025.22;;;15.44;57.39
63306;BME280;50735;52.060;1.248;2023-08-21T02:49:55;102029.90;;;15.15;57.50
63306;BME280;50735;52.060;1.248;2023-08-21T02:52:27;102033.39;;;15.29;58.03
63306;BME280;50735;52.060;1.248;2023-08-21T02:54:59;102034.82;;;15.30;57.67
63306;BME280;50735;52.060;1.248;2023-08-21T02:57:30;102036.87;;;15.56;57.42
63306;BME280;50735;52.060;1.248;2023-08-21T03:00:04;102038.51;;;15.43;57.28
63306;BME280;50735;52.060;1.248;2023-08-21T03:02:36;102039.12;;;15.48;57.13
63306;BME280;50735;52.060;1.248;2023-08-21T03:05:08;102037.45;;;15.49;57.07
63306;BME280;50735;52.060;1.248;2023-08-21T03:07:40;102039.80;;;15.50;57.06
63306;BME280;50735;52.060;1.248;2023-08-21T03:10:12;102044.34;;;15.51;57.03
63306;BME280;50735;52.060;1.248;2023-08-21T03:12:43;102045.72;;;15.51;57.06
63306;BME280;50735;52.060;1.248;2023-08-21T03:15:15;102045.97;;;15.48;57.06
63306;BME280;50735;52.060;1.248;2023-08-21T03:17:47;102047.72;;;15.43;57.15
63306;BME280;50735;52.060;1.248;2023-08-21T03:20:19;102049.42;;;15.39;57.23
63306;BME280;50735;52.060;1.248;2023-08-21T03:22:50;102049.61;;;15.58;57.28
63306;BME280;50735;52.060;1.248;2023-08-21T03:25:22;102046.77;;;15.41;57.19
63306;BME280;50735;52.060;1.248;2023-08-21T03:27:54;102042.69;;;15.42;57.18
63306;BME280;50735;52.060;1.248;2023-08-21T03:30:25;102045.99;;;15.39;57.25
63306;BME280;50735;52.060;1.248;2023-08-21T03:32:57;102044.62;;;15.38;57.30
63306;BME280;50735;52.060;1.248;2023-08-21T03:35:29;102045.75;;;15.16;57.36
63306;BME280;50735;52.060;1.248;2023-08-21T03:38:01;102050.35;;;15.36;57.11
63306;BME280;50735;52.060;1.248;2023-08-21T03:40:33;102050.27;;;15.29;57.06
63306;BME280;50735;52.060;1.248;2023-08-21T03:43:04;102051.42;;;15.26;57.07
63306;BME280;50735;52.060;1.248;2023-08-21T03:45:36;102049.29;;;15.21;57.20
63306;BME280;50735;52.060;1.248;2023-08-21T03:48:08;102051.08;;;14.94;57.40
63306;BME280;50735;52.060;1.248;2023-08-21T03:50:40;102051.89;;;15.14;57.52
63306;BME280;50735;52.060;1.248;2023-08-21T03:53:12;102051.22;;;15.11;57.66
63306;BME280;50735;52.060;1.248;2023-08-21T03:55:44;102052.59;;;15.08;57.70
63306;BME280;50735;52.060;1.248;2023-08-21T03:58:15;102051.33;;;15.07;57.79
63306;BME280;50735;52.060;1.248;2023-08-21T04:00:47;102051.84;;;15.06;57.73
63306;BME280;50735;52.060;1.248;2023-08-21T04:03:19;102053.37;;;15.06;57.68
63306;BME280;50735;52.060;1.248;2023-08-21T04:05:53;102053.14;;;15.24;57.65
63306;BME280;50735;52.060;1.248;2023-08-21T04:08:25;102052.52;;;15.25;57.70
63306;BME280;50735;52.060;1.248;2023-08-21T04:10:56;102053.77;;;15.23;57.63
63306;BME280;50735;52.060;1.248;2023-08-21T04:13:28;102053.90;;;15.22;57.63
63306;BME280;50735;52.060;1.248;2023-08-21T04:16:00;102056.05;;;15.01;57.67
63306;BME280;50735;52.060;1.248;2023-08-21T04:18:32;102059.39;;;14.97;57.71
63306;BME280;50735;52.060;1.248;2023-08-21T04:21:04;102057.63;;;15.14;57.86
63306;BME280;50735;52.060;1.248;2023-08-21T04:23:35;102061.92;;;15.13;57.83
63306;BME280;50735;52.060;1.248;2023-08-21T04:26:07;102062.55;;;15.13;57.80
63306;BME280;50735;52.060;1.248;2023-08-21T04:28:39;102064.40;;;15.12;57.81
63306;BME280;50735;52.060;1.248;2023-08-21T04:31:11;102065.59;;;14.93;57.78
63306;BME280;50735;52.060;1.248;2023-08-21T04:33:42;102067.58;;;15.07;57.88
63306;BME280;50735;52.060;1.248;2023-08-21T04:36:15;102067.63;;;14.83;58.01
63306;BME280;50735;52.060;1.248;2023-08-21T04:38:47;102066.11;;;14.82;58.02
63306;BME280;50735;52.060;1.248;2023-08-21T04:41:19;102064.91;;;14.82;58.01
63306;BME280;50735;52.060;1.248;2023-08-21T04:43:50;102064.26;;;14.97;58.03
63306;BME280;50735;52.060;1.248;2023-08-21T04:46:22;102063.79;;;15.14;58.02
63306;BME280;50735;52.060;1.248;2023-08-21T04:48:53;102063.16;;;14.75;58.09
63306;BME280;50735;52.060;1.248;2023-08-21T04:51:25;102065.56;;;15.09;58.13
63306;BME280;50735;52.060;1.248;2023-08-21T04:53:57;102067.73;;;15.09;58.23
63306;BME280;50735;52.060;1.248;2023-08-21T04:56:29;102068.51;;;14.88;57.92
63306;BME280;50735;52.060;1.248;2023-08-21T04:59:01;102067.78;;;14.83;57.81
63306;BME280;50735;52.060;1.248;2023-08-21T05:01:33;102067.77;;;14.99;57.77
63306;BME280;50735;52.060;1.248;2023-08-21T05:04:05;102067.86;;;14.95;57.72
63306;BME280;50735;52.060;1.248;2023-08-21T05:06:36;102065.44;;;14.90;57.60
63306;BME280;50735;52.060;1.248;2023-08-21T05:09:08;102067.64;;;14.68;57.53
63306;BME280;50735;52.060;1.248;2023-08-21T05:11:40;102068.46;;;14.64;57.65
63306;BME280;50735;52.060;1.248;2023-08-21T05:14:12;102071.92;;;14.61;57.57
63306;BME280;50735;52.060;1.248;2023-08-21T05:16:43;102071.10;;;14.40;57.61
63306;BME280;50735;52.060;1.248;2023-08-21T05:19:16;102072.10;;;14.74;57.75
63306;BME280;50735;52.060;1.248;2023-08-21T05:21:47;102074.41;;;14.76;59.54
63306;BME280;50735;52.060;1.248;2023-08-21T05:24:19;102076.18;;;14.58;58.31
63306;BME280;50735;52.060;1.248;2023-08-21T05:26:51;102077.52;;;14.57;58.18
63306;BME280;50735;52.060;1.248;2023-08-21T05:29:23;102079.40;;;14.54;58.06
63306;BME280;50735;52.060;1.248;2023-08-21T05:31:54;102078.15;;;14.69;58.12
63306;BME280;50735;52.060;1.248;2023-08-21T05:34:26;102076.74;;;14.52;58.17
63306;BME280;50735;52.060;1.248;2023-08-21T05:36:58;102075.28;;;14.71;58.18
63306;BME280;50735;52.060;1.248;2023-08-21T05:39:30;102078.06;;;14.36;58.15
63306;BME280;50735;52.060;1.248;2023-08-21T05:42:01;102080.45;;;14.74;58.08
63306;BME280;50735;52.060;1.248;2023-08-21T05:44:33;102080.39;;;14.77;58.23
63306;BME280;50735;52.060;1.248;2023-08-21T05:47:05;102085.24;;;14.64;58.25
63306;BME280;50735;52.060;1.248;2023-08-21T05:49:37;102091.63;;;14.68;58.27
63306;BME280;50735;52.060;1.248;2023-08-21T05:52:09;102099.11;;;14.71;58.25
63306;BME280;50735;52.060;1.248;2023-08-21T05:54:41;102101.20;;;14.72;58.36
63306;BME280;50735;52.060;1.248;2023-08-21T05:57:13;102102.58;;;14.92;58.39
63306;BME280;50735;52.060;1.248;2023-08-21T05:59:46;102104.78;;;14.93;58.49
63306;BME280;50735;52.060;1.248;2023-08-21T06:02:18;102105.71;;;14.60;58.66
63306;BME280;50735;52.060;1.248;2023-08-21T06:04:50;102107.07;;;14.97;58.73
63306;BME280;50735;52.060;1.248;2023-08-21T06:07:22;102111.05;;;15.02;58.78
63306;BME280;50735;52.060;1.248;2023-08-21T06:09:54;102113.84;;;14.90;58.74
63306;BME280;50735;52.060;1.248;2023-08-21T06:12:26;102111.66;;;14.95;58.74
63306;BME280;50735;52.060;1.248;2023-08-21T06:14:57;102109.33;;;14.99;58.78
63306;BME280;50735;52.060;1.248;2023-08-21T06:17:29;102111.06;;;15.03;58.83
63306;BME280;50735;52.060;1.248;2023-08-21T06:20:01;102108.57;;;15.24;58.77
63306;BME280;50735;52.060;1.248;2023-08-21T06:22:32;102111.19;;;15.28;58.85
63306;BME280;50735;52.060;1.248;2023-08-21T06:25:04;102112.60;;;15.08;59.15
63306;BME280;50735;52.060;1.248;2023-08-21T06:27:36;102117.42;;;14.90;59.40
63306;BME280;50735;52.060;1.248;2023-08-21T06:30:09;102117.54;;;14.95;59.25
63306;BME280;50735;52.060;1.248;2023-08-21T06:32:41;102120.02;;;15.41;59.42
63306;BME280;50735;52.060;1.248;2023-08-21T06:35:12;102125.52;;;15.27;59.21
63306;BME280;50735;52.060;1.248;2023-08-21T06:37:44;102122.96;;;15.17;59.15
63306;BME280;50735;52.060;1.248;2023-08-21T06:40:16;102126.66;;;15.32;59.39
63306;BME280;50735;52.060;1.248;2023-08-21T06:42:48;102123.98;;;15.55;59.60
63306;BME280;50735;52.060;1.248;2023-08-21T06:45:19;102122.09;;;15.72;58.15
63306;BME280;50735;52.060;1.248;2023-08-21T06:47:51;102122.02;;;16.06;57.68
63306;BME280;50735;52.060;1.248;2023-08-21T06:50:24;102115.15;;;16.54;57.66
63306;BME280;50735;52.060;1.248;2023-08-21T06:52:56;102116.90;;;16.86;56.94
63306;BME280;50735;52.060;1.248;2023-08-21T06:55:28;102119.69;;;17.02;56.35
63306;BME280;50735;52.060;1.248;2023-08-21T06:58:00;102125.71;;;17.17;55.66
63306;BME280;50735;52.060;1.248;2023-08-21T07:00:32;102129.32;;;17.13;55.53
63306;BME280;50735;52.060;1.248;2023-08-21T07:03:04;102129.80;;;16.86;55.19
63306;BME280;50735;52.060;1.248;2023-08-21T07:05:37;102126.62;;;17.24;55.24
63306;BME280;50735;52.060;1.248;2023-08-21T07:08:09;102123.00;;;17.07;54.37
63306;BME280;50735;52.060;1.248;2023-08-21T07:10:40;102123.18;;;16.80;54.83
63306;BME280;50735;52.060;1.248;2023-08-21T07:13:12;102133.39;;;16.80;54.72
63306;BME280;50735;52.060;1.248;2023-08-21T07:15:45;102134.66;;;16.71;54.83
63306;BME280;50735;52.060;1.248;2023-08-21T07:18:17;102137.49;;;16.69;54.89
63306;BME280;50735;52.060;1.248;2023-08-21T07:20:52;102138.37;;;16.65;54.92
63306;BME280;50735;52.060;1.248;2023-08-21T07:23:24;102137.61;;;16.44;55.45
63306;BME280;50735;52.060;1.248;2023-08-21T07:25:57;102133.73;;;16.20;55.75
63306;BME280;50735;52.060;1.248;2023-08-21T07:28:29;102135.40;;;16.19;56.28
63306;BME280;50735;52.060;1.248;2023-08-21T07:31:01;102129.47;;;16.17;56.34
63306;BME280;50735;52.060;1.248;2023-08-21T07:33:33;102128.61;;;16.22;56.01
63306;BME280;50735;52.060;1.248;2023-08-21T07:36:05;102127.58;;;16.30;55.77
63306;BME280;50735;52.060;1.248;2023-08-21T07:38:37;102124.27;;;16.38;55.52
63306;BME280;50735;52.060;1.248;2023-08-21T07:41:10;102125.49;;;16.63;54.85
63306;BME280;50735;52.060;1.248;2023-08-21T07:43:43;102122.55;;;16.50;54.98
63306;BME280;50735;52.060;1.248;2023-08-21T07:46:15;102123.44;;;16.71;54.85
63306;BME280;50735;52.060;1.248;2023-08-21T07:48:47;102123.10;;;16.94;54.39
63306;BME280;50735;52.060;1.248;2023-08-21T07:51:18;102126.34;;;16.85;54.22
63306;BME280;50735;52.060;1.248;2023-08-21T07:53:50;102119.54;;;16.95;54.46
63306;BME280;50735;52.060;1.248;2023-08-21T07:56:22;102123.94;;;17.04;53.73
63306;BME280;50735;52.060;1.248;2023-08-21T07:58:53;102124.84;;;16.99;53.75
63306;BME280;50735;52.060;1.248;2023-08-21T08:01:25;102120.78;;;16.99;53.97
63306;BME280;50735;52.060;1.248;2023-08-21T08:03:57;102120.64;;;16.75;53.72
63306;BME280;50735;52.060;1.248;2023-08-21T08:06:29;102121.73;;;17.02;53.84
63306;BME280;50735;52.060;1.248;2023-08-21T08:09:01;102123.33;;;16.87;53.47
63306;BME280;50735;52.060;1.248;2023-08-21T08:11:33;102123.09;;;17.12;53.92
63306;BME280;50735;52.060;1.248;2023-08-21T08:14:04;102120.92;;;17.22;53.34
63306;BME280;50735;52.060;1.248;2023-08-21T08:16:36;102121.67;;;17.39;52.48
63306;BME280;50735;52.060;1.248;2023-08-21T08:19:08;102125.14;;;17.47;52.69
63306;BME280;50735;52.060;1.248;2023-08-21T08:21:40;102127.38;;;17.72;52.42
63306;BME280;50735;52.060;1.248;2023-08-21T08:24:12;102126.71;;;17.75;52.08
63306;BME280;50735;52.060;1.248;2023-08-21T08:26:44;102122.38;;;17.91;51.89
63306;BME280;50735;52.060;1.248;2023-08-21T08:29:16;102123.43;;;17.90;51.19
63306;BME280;50735;52.060;1.248;2023-08-21T08:31:47;102125.99;;;17.98;51.61
63306;BME280;50735;52.060;1.248;2023-08-21T08:34:19;102128.29;;;18.13;50.98
63306;BME280;50735;52.060;1.248;2023-08-21T08:36:51;102127.78;;;18.41;50.79
63306;BME280;50735;52.060;1.248;2023-08-21T08:39:23;102126.81;;;18.30;51.05
63306;BME280;50735;52.060;1.248;2023-08-21T08:41:58;102131.84;;;18.49;50.98
63306;BME280;50735;52.060;1.248;2023-08-21T08:44:35;102135.63;;;18.70;50.75
63306;BME280;50735;52.060;1.248;2023-08-21T08:47:07;102137.07;;;18.61;50.32
63306;BME280;50735;52.060;1.248;2023-08-21T08:49:39;102134.43;;;18.27;49.88
63306;BME280;50735;52.060;1.248;2023-08-21T08:52:11;102131.01;;;18.64;50.37
63306;BME280;50735;52.060;1.248;2023-08-21T08:54:44;102127.78;;;18.61;49.96
63306;BME280;50735;52.060;1.248;2023-08-21T08:57:16;102122.87;;;19.13;49.27
63306;BME280;50735;52.060;1.248;2023-08-21T08:59:48;102124.31;;;19.64;48.30
63306;BME280;50735;52.060;1.248;2023-08-21T09:02:19;102125.56;;;20.13;46.67
63306;BME280;50735;52.060;1.248;2023-08-21T09:04:52;102118.12;;;20.32;45.08
63306;BME280;50735;52.060;1.248;2023-08-21T09:07:25;102114.19;;;20.90;45.06
63306;BME280;50735;52.060;1.248;2023-08-21T09:09:57;102114.39;;;21.41;43.60
63306;BME280;50735;52.060;1.248;2023-08-21T09:12:31;102107.74;;;21.44;43.20
63306;BME280;50735;52.060;1.248;2023-08-21T09:15:07;102107.04;;;21.67;42.52
63306;BME280;50735;52.060;1.248;2023-08-21T09:17:39;102102.65;;;22.26;41.97
63306;BME280;50735;52.060;1.248;2023-08-21T09:20:11;102099.44;;;22.57;41.38
63306;BME280;50735;52.060;1.248;2023-08-21T09:22:53;102102.14;;;22.15;41.14
63306;BME280;50735;52.060;1.248;2023-08-21T09:25:25;102094.03;;;22.35;40.99
63306;BME280;50735;52.060;1.248;2023-08-21T09:27:57;102090.13;;;22.85;40.61
63306;BME280;50735;52.060;1.248;2023-08-21T09:30:29;102098.40;;;22.58;40.20
63306;BME280;50735;52.060;1.248;2023-08-21T09:33:01;102095.13;;;23.03;40.00
63306;BME280;50735;52.060;1.248;2023-08-21T09:35:33;102087.84;;;23.28;40.51
63306;BME280;50735;52.060;1.248;2023-08-21T09:38:05;102094.80;;;23.43;38.74
63306;BME280;50735;52.060;1.248;2023-08-21T09:40:39;102099.93;;;23.93;38.82
63306;BME280;50735;52.060;1.248;2023-08-21T09:43:11;102097.34;;;23.91;38.52
63306;BME280;50735;52.060;1.248;2023-08-21T09:45:46;102097.94;;;23.71;38.95
63306;BME280;50735;52.060;1.248;2023-08-21T09:48:19;102095.41;;;24.05;38.48
63306;BME280;50735;52.060;1.248;2023-08-21T09:50:53;102100.91;;;24.19;37.76
63306;BME280;50735;52.060;1.248;2023-08-21T09:53:25;102096.50;;;24.03;37.10
63306;BME280;50735;52.060;1.248;2023-08-21T09:55:57;102100.42;;;24.04;37.49
63306;BME280;50735;52.060;1.248;2023-08-21T09:58:31;102101.26;;;24.62;36.78
63306;BME280;50735;52.060;1.248;2023-08-21T10:01:05;102100.54;;;24.73;36.47
63306;BME280;50735;52.060;1.248;2023-08-21T10:03:38;102097.71;;;24.81;35.59
63306;BME280;50735;52.060;1.248;2023-08-21T10:06:11;102100.62;;;24.11;36.31
63306;BME280;50735;52.060;1.248;2023-08-21T10:08:45;102093.65;;;24.06;36.74
63306;BME280;50735;52.060;1.248;2023-08-21T10:11:19;102086.93;;;24.16;36.79
63306;BME280;50735;52.060;1.248;2023-08-21T10:13:52;102087.09;;;24.42;36.45
63306;BME280;50735;52.060;1.248;2023-08-21T10:16:24;102088.40;;;23.85;36.83
63306;BME280;50735;52.060;1.248;2023-08-21T10:19:03;102088.24;;;23.95;36.93
63306;BME280;50735;52.060;1.248;2023-08-21T10:21:36;102084.01;;;24.26;36.34
63306;BME280;50735;52.060;1.248;2023-08-21T10:24:08;102086.75;;;24.65;35.99
63306;BME280;50735;52.060;1.248;2023-08-21T10:26:39;102082.29;;;24.81;36.75
63306;BME280;50735;52.060;1.248;2023-08-21T10:29:12;102085.72;;;24.95;36.19
63306;BME280;50735;52.060;1.248;2023-08-21T10:31:43;102088.62;;;25.24;36.44
63306;BME280;50735;52.060;1.248;2023-08-21T10:34:18;102086.73;;;25.32;36.55
63306;BME280;50735;52.060;1.248;2023-08-21T10:37:08;102086.09;;;24.96;36.27
63306;BME280;50735;52.060;1.248;2023-08-21T10:39:54;102089.89;;;25.08;35.34
63306;BME280;50735;52.060;1.248;2023-08-21T10:42:42;102076.70;;;25.87;35.73
63306;BME280;50735;52.060;1.248;2023-08-21T10:45:14;102073.26;;;25.49;35.92
63306;BME280;50735;52.060;1.248;2023-08-21T10:47:46;102073.96;;;25.55;35.55
63306;BME280;50735;52.060;1.248;2023-08-21T10:50:18;102078.50;;;25.45;35.08
63306;BME280;50735;52.060;1.248;2023-08-21T10:52:51;102075.28;;;25.22;35.60
63306;BME280;50735;52.060;1.248;2023-08-21T10:55:23;102074.68;;;25.27;35.84
63306;BME280;50735;52.060;1.248;2023-08-21T10:57:55;102076.92;;;25.50;36.24
63306;BME280;50735;52.060;1.248;2023-08-21T11:00:27;102079.19;;;25.66;35.74
63306;BME280;50735;52.060;1.248;2023-08-21T11:02:58;102079.03;;;25.81;35.95
63306;BME280;50735;52.060;1.248;2023-08-21T11:05:30;102076.90;;;25.94;35.89
63306;BME280;50735;52.060;1.248;2023-08-21T11:08:02;102075.97;;;25.53;35.86
63306;BME280;50735;52.060;1.248;2023-08-21T11:10:34;102069.50;;;25.48;35.52
63306;BME280;50735;52.060;1.248;2023-08-21T11:13:07;102068.47;;;25.47;36.21
63306;BME280;50735;52.060;1.248;2023-08-21T11:15:39;102074.83;;;25.64;36.30
63306;BME280;50735;52.060;1.248;2023-08-21T11:18:11;102072.28;;;26.08;35.52
63306;BME280;50735;52.060;1.248;2023-08-21T11:20:42;102075.70;;;26.04;34.77
63306;BME280;50735;52.060;1.248;2023-08-21T11:23:14;102081.56;;;25.89;34.19
63306;BME280;50735;52.060;1.248;2023-08-21T11:25:46;102074.96;;;25.86;35.16
63306;BME280;50735;52.060;1.248;2023-08-21T11:28:17;102075.82;;;25.71;35.74
63306;BME280;50735;52.060;1.248;2023-08-21T11:30:49;102078.55;;;26.01;35.23
63306;BME280;50735;52.060;1.248;2023-08-21T11:33:21;102073.04;;;26.10;35.31
63306;BME280;50735;52.060;1.248;2023-08-21T11:35:53;102074.30;;;25.69;35.15
63306;BME280;50735;52.060;1.248;2023-08-21T11:38:26;102073.88;;;25.41;35.96
63306;BME280;50735;52.060;1.248;2023-08-21T11:41:00;102074.26;;;25.89;35.54
63306;BME280;50735;52.060;1.248;2023-08-21T11:43:36;102081.48;;;26.06;35.15
63306;BME280;50735;52.060;1.248;2023-08-21T11:46:09;102086.26;;;25.44;35.55
63306;BME280;50735;52.060;1.248;2023-08-21T11:48:41;102085.10;;;25.64;35.93
63306;BME280;50735;52.060;1.248;2023-08-21T11:51:13;102087.82;;;25.36;35.71
63306;BME280;50735;52.060;1.248;2023-08-21T11:53:47;102078.79;;;25.45;35.65
63306;BME280;50735;52.060;1.248;2023-08-21T11:56:19;102075.54;;;25.63;35.89
63306;BME280;50735;52.060;1.248;2023-08-21T11:58:51;102078.63;;;25.67;35.90
63306;BME280;50735;52.060;1.248;2023-08-21T12:01:23;102080.79;;;25.27;35.49
63306;BME280;50735;52.060;1.248;2023-08-21T12:03:54;102077.28;;;25.58;35.71
63306;BME280;50735;52.060;1.248;2023-08-21T12:06:26;102075.63;;;26.04;34.94
63306;BME280;50735;52.060;1.248;2023-08-21T12:08:58;102069.80;;;25.96;35.06
63306;BME280;50735;52.060;1.248;2023-08-21T12:11:29;102063.98;;;25.34;35.56
63306;BME280;50735;52.060;1.248;2023-08-21T12:14:01;102062.57;;;25.16;35.19
63306;BME280;50735;52.060;1.248;2023-08-21T12:16:33;102053.63;;;25.15;35.45
63306;BME280;50735;52.060;1.248;2023-08-21T12:19:05;102048.24;;;25.35;34.82
63306;BME280;50735;52.060;1.248;2023-08-21T12:21:37;102044.29;;;25.48;34.78
63306;BME280;50735;52.060;1.248;2023-08-21T12:24:09;102048.44;;;25.86;34.91
63306;BME280;50735;52.060;1.248;2023-08-21T12:26:41;102045.29;;;25.85;34.90
63306;BME280;50735;52.060;1.248;2023-08-21T12:29:14;102043.52;;;25.83;34.61
63306;BME280;50735;52.060;1.248;2023-08-21T12:31:46;102043.91;;;26.30;34.65
63306;BME280;50735;52.060;1.248;2023-08-21T12:34:18;102045.88;;;26.39;33.51
63306;BME280;50735;52.060;1.248;2023-08-21T12:36:50;102038.52;;;26.11;33.89
63306;BME280;50735;52.060;1.248;2023-08-21T12:39:22;102036.26;;;25.99;34.49
63306;BME280;50735;52.060;1.248;2023-08-21T12:41:53;102039.84;;;25.78;34.57
63306;BME280;50735;52.060;1.248;2023-08-21T12:44:26;102030.09;;;25.94;34.12
63306;BME280;50735;52.060;1.248;2023-08-21T12:46:57;102030.36;;;26.00;33.84
63306;BME280;50735;52.060;1.248;2023-08-21T12:49:29;102025.75;;;25.82;33.73
63306;BME280;50735;52.060;1.248;2023-08-21T12:52:00;102018.93;;;25.91;33.94
63306;BME280;50735;52.060;1.248;2023-08-21T12:54:32;102016.17;;;26.25;33.97
63306;BME280;50735;52.060;1.248;2023-08-21T12:57:04;102016.68;;;26.41;33.29
63306;BME280;50735;52.060;1.248;2023-08-21T12:59:37;102014.88;;;26.60;32.72
63306;BME280;50735;52.060;1.248;2023-08-21T13:02:09;102012.66;;;26.40;32.79
63306;BME280;50735;52.060;1.248;2023-08-21T13:04:41;102012.43;;;26.69;32.33
63306;BME280;50735;52.060;1.248;2023-08-21T13:07:12;102003.48;;;26.44;31.83
63306;BME280;50735;52.060;1.248;2023-08-21T13:09:44;102003.29;;;26.38;31.79
63306;BME280;50735;52.060;1.248;2023-08-21T13:12:16;101999.11;;;26.39;31.75
63306;BME280;50735;52.060;1.248;2023-08-21T13:14:48;101998.32;;;26.75;31.41
63306;BME280;50735;52.060;1.248;2023-08-21T13:17:19;101995.13;;;26.25;31.35